Decoded Metar for LEBL (BARCELONA in SPAIN) (IATA:BCN) | Meteo·Mobile Aviation Weather
aviador You're here:

LEBL Decoded Metar

BARCELONA in SPAIN
Report Time2018-10-18 10:30:00
UTC Time2018-10-18 11:05:35
Flight Rules ifr IFR
Wind050° at 15 kt
W.Decomp.*RWY 07: 14.1 kt HW 5.1 kt LCW
RWY 02: 13.0 kt HW 7.5 kt RCW
W.Rank050° ranks 16
Current wind is above 050° avg. (8.7)
Visibility4000 m
Phenomena:Heavy Rain
Clouds:Scattered 025 Hf
Broken 040 Hf
Expected CloudBase > 400 ft AGL from Temp-Dew spread
Ceiling4,000 ft
Temp19°C (ISA +4)
Dew Point18°C (94% RH)
AAT16.4°C
QNH1011 hPa
Density Alt833 ft
Elevation20 ft
Report Wrong Elevation
Raw Report
METAR LEBL 181030Z 05015KT 4000 +RA SCT025 BKN040 19/18 Q1011 NOSIG=

Extra information for LEBL:More info

Metar Taf Metar & Taf Last 4 Metars F.Rules Stats Wind Profile Meteogram Temp Stats Airport Information Weather charts Add Link Nearby VenuesMetar ALERT Operation Metar Decoded Social comments